createdAt,value
2022-08-20T00:02:07.737Z,97665.16
2022-08-20T00:04:34.036Z,97672.44
2022-08-20T00:07:00.300Z,97673.50
2022-08-20T00:09:26.577Z,97676.19
2022-08-20T00:11:56.478Z,97675.69
2022-08-20T00:14:22.960Z,97671.38
2022-08-20T00:16:49.261Z,97665.47
2022-08-20T00:19:15.538Z,97669.25
2022-08-20T00:21:42.007Z,97666.88
2022-08-20T00:24:08.608Z,97672.53
2022-08-20T00:26:34.857Z,97680.59
2022-08-20T00:29:03.000Z,97677.09
2022-08-20T00:31:29.452Z,97677.38
2022-08-20T00:33:55.797Z,97677.66
2022-08-20T00:36:22.081Z,97682.22
2022-08-20T00:38:58.614Z,97681.69
2022-08-20T00:41:24.902Z,97685.22
2022-08-20T00:43:51.224Z,97688.19
2022-08-20T00:46:17.564Z,97685.75
2022-08-20T00:48:43.798Z,97688.72
2022-08-20T00:51:10.119Z,97687.13
2022-08-20T00:53:36.352Z,97688.47
2022-08-20T00:56:02.762Z,97689.81
2022-08-20T00:58:29.011Z,97688.47
2022-08-20T01:00:55.233Z,97693.91
2022-08-20T01:03:21.565Z,97691.50
2022-08-20T01:05:47.919Z,97688.28
2022-08-20T01:08:14.297Z,97694.22
2022-08-20T01:10:40.543Z,97685.63
2022-08-20T01:13:06.792Z,97691.56
2022-08-20T01:15:33.124Z,97692.09
2022-08-20T01:17:59.472Z,97697.22
2022-08-20T01:20:25.690Z,97693.75
2022-08-20T01:22:52.018Z,97692.13
2022-08-20T01:25:18.283Z,97691.34
2022-08-20T01:27:44.594Z,97687.03
2022-08-20T01:30:11.631Z,97683.59
2022-08-20T01:32:37.923Z,97680.88
2022-08-20T01:35:04.179Z,97684.63
2022-08-20T01:37:31.548Z,97685.75
2022-08-20T01:39:58.365Z,97688.41
2022-08-20T01:42:25.253Z,97686.78
2022-08-20T01:44:51.474Z,97689.50
2022-08-20T01:47:17.753Z,97690.56
2022-08-20T01:49:44.142Z,97694.34
2022-08-20T01:52:10.466Z,97697.00
2022-08-20T01:54:36.879Z,97696.53
2022-08-20T01:57:03.281Z,97687.66
2022-08-20T01:59:29.575Z,97689.53
2022-08-20T02:01:55.835Z,97688.72
2022-08-20T02:04:22.062Z,97691.41
2022-08-20T02:06:56.581Z,97697.88
2022-08-20T02:09:23.885Z,97690.91
2022-08-20T02:11:50.169Z,97700.84
2022-08-20T02:14:16.427Z,97697.34
2022-08-20T02:16:42.683Z,97692.25
2022-08-20T02:19:08.928Z,97693.84
2022-08-20T02:21:35.303Z,97699.50
2022-08-20T02:24:01.761Z,97701.41
2022-08-20T02:26:28.013Z,97699.78
2022-08-20T02:28:54.230Z,97696.56
2022-08-20T02:31:20.695Z,97705.41
2022-08-20T02:34:21.594Z,97703.00
2022-08-20T02:36:33.176Z,97709.44
2022-08-20T02:39:04.283Z,97719.41
2022-08-20T02:41:34.205Z,97712.41
2022-08-20T02:44:00.507Z,97714.31
2022-08-20T02:46:26.804Z,97721.56
2022-08-20T02:48:53.190Z,97724.53
2022-08-20T02:51:19.557Z,97718.34
2022-08-20T02:53:56.877Z,97714.06
2022-08-20T02:56:23.308Z,97724.53
2022-08-20T02:58:49.624Z,97721.31
2022-08-20T03:01:15.968Z,97715.94
2022-08-20T03:03:42.329Z,97719.69
2022-08-20T03:06:08.561Z,97722.38
2022-08-20T03:08:36.885Z,97725.06
2022-08-20T03:11:03.178Z,97726.97
2022-08-20T03:13:29.443Z,97726.16
2022-08-20T03:15:58.834Z,97732.63
2022-08-20T03:18:25.474Z,97727.25
2022-08-20T03:20:52.258Z,97727.25
2022-08-20T03:23:18.642Z,97727.25
2022-08-20T03:25:45.029Z,97725.63
2022-08-20T03:28:11.435Z,97720.53
2022-08-20T03:30:37.759Z,97717.56
2022-08-20T03:33:04.176Z,97717.03
2022-08-20T03:35:32.774Z,97719.72
2022-08-20T03:37:59.079Z,97717.03
2022-08-20T03:40:25.406Z,97726.19
2022-08-20T03:42:51.693Z,97724.59
2022-08-20T03:45:20.482Z,97731.56
2022-08-20T03:47:47.179Z,97734.53
2022-08-20T03:50:14.718Z,97731.03
2022-08-20T03:52:49.633Z,97726.75
2022-08-20T03:55:19.114Z,97729.44
2022-08-20T03:57:45.555Z,97723.53
2022-08-20T04:00:11.828Z,97731.59
2022-08-20T04:02:41.037Z,97728.09
2022-08-20T04:05:07.969Z,97737.22
2022-08-20T04:07:34.206Z,97737.22
2022-08-20T04:10:00.691Z,97738.28
2022-08-20T04:12:26.975Z,97734.81
2022-08-20T04:14:53.871Z,97735.88
2022-08-20T04:17:20.122Z,97731.59
2022-08-20T04:19:48.219Z,97735.88
2022-08-20T04:22:14.478Z,97735.88
2022-08-20T04:24:40.820Z,97731.59
2022-08-20T04:27:07.312Z,97734.28
2022-08-20T04:29:35.289Z,97738.84
2022-08-20T04:32:05.713Z,97738.03
2022-08-20T04:34:32.331Z,97735.34
2022-08-20T04:36:58.589Z,97742.63
2022-08-20T04:39:24.833Z,97740.97
2022-08-20T04:41:51.082Z,97749.84
2022-08-20T04:44:17.337Z,97746.34
2022-08-20T04:46:43.857Z,97748.22
2022-08-20T04:49:10.363Z,97749.84
2022-08-20T04:51:36.578Z,97748.78
2022-08-20T04:54:03.570Z,97748.78
2022-08-20T04:56:29.870Z,97753.09
2022-08-20T04:58:56.405Z,97756.84
2022-08-20T05:01:23.128Z,97756.84
2022-08-20T05:03:53.311Z,97746.91
2022-08-20T05:06:19.548Z,97751.47
2022-08-20T05:08:45.875Z,97762.22
2022-08-20T05:11:36.169Z,97757.66
2022-08-20T05:13:58.390Z,97764.88
2022-08-20T05:16:24.876Z,97764.88
2022-08-20T05:18:52.484Z,97772.16
2022-08-20T05:21:19.159Z,97769.47
2022-08-20T05:23:45.461Z,97778.31
2022-08-20T05:26:11.819Z,97783.69
2022-08-20T05:28:58.124Z,97782.06
2022-08-20T05:31:24.444Z,97791.75
2022-08-20T05:33:58.965Z,97799.03
2022-08-20T05:36:25.298Z,97799.03
2022-08-20T05:38:51.594Z,97789.06
2022-08-20T05:41:28.673Z,97783.69
2022-08-20T05:43:55.851Z,97804.91
2022-08-20T05:46:22.234Z,97805.16
2022-08-20T05:48:49.399Z,97803.03
2022-08-20T05:51:15.739Z,97803.84
2022-08-20T05:56:26.804Z,97813.22
2022-08-20T05:58:53.510Z,97820.22
2022-08-20T06:01:19.848Z,97812.97
2022-08-20T06:03:46.158Z,97820.75
2022-08-20T06:06:38.823Z,97818.59
2022-08-20T06:08:58.763Z,97821.78
2022-08-20T06:11:25.056Z,97819.38
2022-08-20T06:13:51.373Z,97820.16
2022-08-20T06:16:19.700Z,97824.72
2022-08-20T06:18:47.030Z,97824.16
2022-08-20T06:21:13.319Z,97829.00
2022-08-20T06:23:56.461Z,97821.19
2022-08-20T06:26:30.435Z,97821.72
2022-08-20T06:28:57.406Z,97823.06
2022-08-20T06:31:24.962Z,97815.50
2022-08-20T06:33:51.477Z,97817.41
2022-08-20T06:36:20.749Z,97814.72
2022-08-20T06:38:47.059Z,97819.00
2022-08-20T06:41:13.315Z,97820.63
2022-08-20T06:43:39.625Z,97811.47
2022-08-20T06:46:06.025Z,97809.88
2022-08-20T06:48:32.337Z,97811.75
2022-08-20T06:50:58.697Z,97816.84
2022-08-20T06:53:24.984Z,97817.94
2022-08-20T06:55:51.371Z,97823.03
2022-08-20T06:58:35.630Z,97822.75
2022-08-20T07:01:09.511Z,97832.97
2022-08-20T07:03:36.694Z,97828.94
2022-08-20T07:06:03.000Z,97829.72
2022-08-20T07:08:29.347Z,97820.88
2022-08-20T07:10:55.953Z,97832.13
2022-08-20T07:13:22.294Z,97827.28
2022-08-20T07:15:51.003Z,97836.97
2022-08-20T07:18:28.489Z,97834.81
2022-08-20T07:20:55.407Z,97839.38
2022-08-20T07:23:21.697Z,97837.75
2022-08-20T07:25:48.026Z,97838.25
2022-08-20T07:28:14.348Z,97837.19
2022-08-20T07:30:56.190Z,97833.94
2022-08-20T07:33:23.756Z,97837.69
2022-08-20T07:35:51.003Z,97844.13
2022-08-20T07:38:17.337Z,97856.50
2022-08-20T07:40:43.604Z,97860.50
2022-08-20T07:43:09.991Z,97858.34
2022-08-20T07:45:37.844Z,97860.72
2022-08-20T07:48:04.149Z,97863.69
2022-08-20T07:50:30.470Z,97865.03
2022-08-20T07:52:57.047Z,97870.94
2022-08-20T07:55:23.516Z,97870.41
2022-08-20T07:57:49.771Z,97874.19
2022-08-20T08:00:16.032Z,97884.91
2022-08-20T08:02:42.310Z,97910.88
2022-08-20T08:05:08.575Z,97928.69
2022-08-20T08:07:34.854Z,97953.69
2022-08-20T08:10:02.116Z,97970.66
2022-08-20T08:12:28.495Z,97936.63
2022-08-20T08:17:23.240Z,97906.84
2022-08-20T08:19:49.497Z,97901.78
2022-08-20T08:22:15.930Z,97908.25
2022-08-20T08:24:42.244Z,97918.75
2022-08-20T08:27:23.257Z,97929.22
2022-08-20T08:29:49.551Z,97944.19
2022-08-20T08:32:16.929Z,97969.78
2022-08-20T08:34:43.235Z,97949.38
2022-08-20T08:37:09.494Z,97943.28
2022-08-20T08:39:35.755Z,97944.41
2022-08-20T08:42:03.414Z,97939.06
2022-08-20T08:44:29.739Z,97945.81
2022-08-20T08:46:56.040Z,97949.31
2022-08-20T08:49:22.377Z,97949.31
2022-08-20T08:51:48.657Z,97951.72
2022-08-20T08:54:14.927Z,97951.72
2022-08-20T08:56:41.244Z,97963.03
2022-08-20T08:59:07.611Z,97967.31
2022-08-20T09:01:54.085Z,97967.56
2022-08-20T09:04:21.844Z,97979.94
2022-08-20T09:06:52.369Z,97981.53
2022-08-20T09:09:18.858Z,97982.06
2022-08-20T09:11:45.198Z,97979.06
2022-08-20T09:14:11.555Z,97988.22
2022-08-20T09:16:52.242Z,97982.25
2022-08-20T09:19:19.055Z,97986.00
2022-08-20T09:21:45.334Z,97983.81
2022-08-20T09:24:11.864Z,97983.78
2022-08-20T09:26:39.245Z,97996.09
2022-08-20T09:29:05.674Z,98009.41
2022-08-20T09:31:32.663Z,98012.25
2022-08-20T09:33:59.380Z,98016.94
2022-08-20T09:36:25.744Z,98003.81
2022-08-20T09:38:58.496Z,97997.38
2022-08-20T09:41:24.760Z,97992.72
2022-08-20T09:43:51.243Z,97998.41
2022-08-20T09:46:17.608Z,97986.56
2022-08-20T09:48:43.903Z,98001.97
2022-08-20T09:51:10.280Z,97996.59
2022-08-20T09:53:36.708Z,97997.09
2022-08-20T09:56:03.167Z,98003.53
2022-08-20T09:58:29.419Z,97998.81
2022-08-20T10:00:55.767Z,98011.16
2022-08-20T10:03:22.145Z,98009.44
2022-08-20T10:05:48.639Z,98008.78
2022-08-20T10:08:14.996Z,98003.56
2022-08-20T10:10:41.258Z,98004.91
2022-08-20T10:13:07.598Z,98003.84
2022-08-20T10:15:34.662Z,98011.09
2022-08-20T10:18:03.093Z,98008.59
2022-08-20T10:20:29.386Z,97994.03
2022-08-20T10:22:55.626Z,97999.94
2022-08-20T10:25:22.008Z,97995.56
2022-08-20T10:27:48.351Z,97991.78
2022-08-20T10:30:14.858Z,97987.97
2022-08-20T10:32:41.126Z,97991.72
2022-08-20T10:35:07.374Z,97990.06
2022-08-20T10:37:33.839Z,97983.03
2022-08-20T10:40:00.223Z,97985.44
2022-08-20T10:42:26.741Z,97979.75
2022-08-20T10:44:53.042Z,97972.97
2022-08-20T10:47:21.826Z,97972.38
2022-08-20T10:49:48.367Z,97977.47
2022-08-20T10:52:14.713Z,97988.19
2022-08-20T10:54:41.120Z,97978.97
2022-08-20T10:57:08.412Z,97982.19
2022-08-20T10:59:34.761Z,97977.63
2022-08-20T11:02:01.509Z,97986.00
2022-08-20T11:04:27.947Z,97977.94
2022-08-20T11:06:54.479Z,97976.34
2022-08-20T11:09:20.751Z,97976.94
2022-08-20T11:11:47.293Z,97974.53
2022-08-20T11:14:16.253Z,97967.22
2022-08-20T11:16:42.735Z,97980.16
2022-08-20T11:19:09.171Z,97963.38
2022-08-20T11:21:35.579Z,97977.91
2022-08-20T11:24:03.126Z,97981.59
2022-08-20T11:26:29.878Z,97992.84
2022-08-20T11:28:56.930Z,97994.91
2022-08-20T11:31:23.681Z,97993.22
2022-08-20T11:33:50.031Z,97999.88
2022-08-20T11:36:17.851Z,98004.09
2022-08-20T11:38:47.206Z,98005.91
2022-08-20T11:41:15.901Z,98003.44
2022-08-20T11:44:04.763Z,97994.22
2022-08-20T11:46:34.507Z,98010.03
2022-08-20T11:49:01.044Z,98001.81
2022-08-20T11:51:27.366Z,97997.44
2022-08-20T11:53:53.652Z,97997.34
2022-08-20T11:56:20.882Z,97999.47
2022-08-20T11:58:49.553Z,98008.59
2022-08-20T12:01:16.938Z,97999.06
2022-08-20T12:03:43.302Z,97991.16
2022-08-20T12:06:09.658Z,97996.78
2022-08-20T12:08:35.957Z,97994.06
2022-08-20T12:11:04.560Z,97988.28
2022-08-20T12:13:47.309Z,97989.78
2022-08-20T12:16:15.382Z,97998.13
2022-08-20T12:18:41.846Z,97992.91
2022-08-20T12:21:08.155Z,97980.97
2022-08-20T12:23:34.536Z,97972.56
2022-08-20T12:26:00.854Z,97978.19
2022-08-20T12:28:27.234Z,97977.63
2022-08-20T12:30:53.655Z,97979.22
2022-08-20T12:33:20.025Z,97972.72
2022-08-20T12:35:46.544Z,97974.31
2022-08-20T12:38:12.939Z,97969.91
2022-08-20T12:40:39.351Z,97963.09
2022-08-20T12:43:05.662Z,97965.47
2022-08-20T12:45:31.924Z,97954.97
2022-08-20T12:47:58.293Z,97961.19
2022-08-20T12:50:26.582Z,97954.66
2022-08-20T12:52:56.055Z,97954.38
2022-08-20T12:55:28.496Z,97953.56
2022-08-20T12:57:54.769Z,97957.66
2022-08-20T13:00:21.070Z,97948.25
2022-08-20T13:02:47.672Z,97945.06
2022-08-20T13:05:13.968Z,97953.16
2022-08-20T13:07:40.408Z,97954.25
2022-08-20T13:10:06.732Z,97962.38
2022-08-20T13:12:33.009Z,97958.06
2022-08-20T13:14:59.663Z,97954.25
2022-08-20T13:17:39.045Z,97962.38
2022-08-20T13:20:06.045Z,97963.19
2022-08-20T13:22:32.429Z,97969.72
2022-08-20T13:24:58.914Z,97968.09
2022-08-20T13:27:25.173Z,97976.50
2022-08-20T13:29:54.064Z,97978.41
2022-08-20T13:32:24.102Z,97983.31
2022-08-20T13:34:50.366Z,97978.19
2022-08-20T13:37:16.728Z,97972.75
2022-08-20T13:39:43.148Z,97965.75
2022-08-20T13:42:09.478Z,97964.66
2022-08-20T13:44:35.820Z,97961.94
2022-08-20T13:47:02.087Z,97960.84
2022-08-20T13:49:29.817Z,97968.16
2022-08-20T13:52:00.321Z,97963.56
2022-08-20T13:54:30.497Z,97951.00
2022-08-20T13:56:56.984Z,97958.97
2022-08-20T13:59:23.308Z,97950.56
2022-08-20T14:01:49.806Z,97955.97
2022-08-20T14:04:16.172Z,97956.25
2022-08-20T14:06:43.111Z,97952.47
2022-08-20T14:09:09.372Z,97952.47
2022-08-20T14:11:35.682Z,97957.88
2022-08-20T14:14:01.952Z,97955.16
2022-08-20T14:16:30.356Z,97954.31
2022-08-20T14:19:02.080Z,97953.53
2022-08-20T14:21:28.505Z,97956.53
2022-08-20T14:23:54.885Z,97953.03
2022-08-20T14:26:21.120Z,97956.53
2022-08-20T14:28:47.578Z,97952.72
2022-08-20T14:31:13.852Z,97952.72
2022-08-20T14:33:44.571Z,97957.34
2022-08-20T14:36:11.238Z,97959.22
2022-08-20T14:38:37.486Z,97954.94
2022-08-20T14:41:03.745Z,97956.84
2022-08-20T14:43:30.062Z,97956.31
2022-08-20T14:45:56.386Z,97949.31
2022-08-20T14:48:22.677Z,97944.22
2022-08-20T14:50:49.098Z,97940.69
2022-08-20T14:53:15.367Z,97944.22
2022-08-20T14:55:41.653Z,97938.81
2022-08-20T14:58:07.974Z,97937.69
2022-08-20T15:00:34.258Z,97937.38
2022-08-20T15:03:00.534Z,97931.97
2022-08-20T15:05:26.928Z,97936.31
2022-08-20T15:07:54.167Z,97938.69
2022-08-20T15:10:20.717Z,97947.94
2022-08-20T15:12:46.964Z,97939.50
2022-08-20T15:15:15.948Z,97943.00
2022-08-20T15:17:42.564Z,97945.69
2022-08-20T15:20:08.957Z,97940.28
2022-08-20T15:22:46.833Z,97933.28
2022-08-20T15:25:14.124Z,97938.69
2022-08-20T15:27:41.805Z,97934.88
2022-08-20T15:30:08.089Z,97930.59
2022-08-20T15:32:34.326Z,97934.41
2022-08-20T15:35:01.957Z,97934.41
2022-08-20T15:37:28.214Z,97932.78
2022-08-20T15:39:54.660Z,97938.69
2022-08-20T15:42:21.079Z,97930.69
2022-08-20T15:44:47.537Z,97935.69
2022-08-20T15:47:13.845Z,97941.91
2022-08-20T15:49:40.375Z,97942.72
2022-08-20T15:52:06.630Z,97945.16
2022-08-20T15:54:32.927Z,97947.31
2022-08-20T15:56:59.310Z,97944.63
2022-08-20T15:59:25.745Z,97941.09
2022-08-20T16:01:52.115Z,97940.28
2022-08-20T16:04:18.373Z,97934.88
2022-08-20T16:06:44.605Z,97928.69
2022-08-20T16:09:12.405Z,97932.97
2022-08-20T16:11:38.821Z,97932.16
2022-08-20T16:14:05.051Z,97929.19
2022-08-20T16:16:33.074Z,97932.69
2022-08-20T16:18:59.555Z,97941.91
2022-08-20T16:21:28.330Z,97945.16
2022-08-20T16:23:54.556Z,97937.03
2022-08-20T16:26:23.208Z,97935.91
2022-08-20T16:28:49.437Z,97940.78
2022-08-20T16:31:15.681Z,97942.44
2022-08-20T16:33:42.105Z,97929.19
2022-08-20T16:36:08.362Z,97936.50
2022-08-20T16:38:34.717Z,97932.97
2022-08-20T16:41:01.048Z,97929.00
2022-08-20T16:43:27.392Z,97929.25
2022-08-20T16:45:53.656Z,97926.88
2022-08-20T16:48:20.049Z,97929.88
2022-08-20T16:50:46.357Z,97938.28
2022-08-20T16:53:12.828Z,97937.47
2022-08-20T16:55:40.204Z,97930.47
2022-08-20T16:58:07.549Z,97932.69
2022-08-20T17:00:33.796Z,97924.88
2022-08-20T17:03:00.157Z,97928.69
2022-08-20T17:05:26.493Z,97924.38
2022-08-20T17:07:53.632Z,97921.16
2022-08-20T17:10:24.219Z,97922.25
2022-08-20T17:12:50.561Z,97917.94
2022-08-20T17:15:17.559Z,97906.63
2022-08-20T17:17:43.895Z,97913.13
2022-08-20T17:20:14.398Z,97908.03
2022-08-20T17:22:46.497Z,97909.41
2022-08-20T17:25:12.796Z,97905.94
2022-08-20T17:27:39.116Z,97906.22
2022-08-20T17:30:05.360Z,97907.31
2022-08-20T17:32:31.775Z,97913.03
2022-08-20T17:34:58.125Z,97921.44
2022-08-20T17:37:26.463Z,97923.63
2022-08-20T17:39:52.957Z,97925.06
2022-08-20T17:42:19.261Z,97922.94
2022-08-20T17:44:47.632Z,97922.41
2022-08-20T17:47:13.887Z,97926.53
2022-08-20T17:49:40.303Z,97928.22
2022-08-20T17:52:06.548Z,97918.81
2022-08-20T17:54:32.839Z,97924.81
2022-08-20T17:56:59.314Z,97911.75
2022-08-20T18:00:01.318Z,97926.78
2022-08-20T18:02:12.127Z,97926.28
2022-08-20T18:04:38.405Z,97926.84
2022-08-20T18:07:04.922Z,97925.56
2022-08-20T18:09:31.212Z,97938.56
2022-08-20T18:11:57.514Z,97935.34
2022-08-20T18:14:24.016Z,97934.84
2022-08-20T18:16:50.544Z,97926.50
2022-08-20T18:19:16.897Z,97938.72
2022-08-20T18:21:43.308Z,97932.81
2022-08-20T18:24:09.624Z,97938.53
2022-08-20T18:26:35.912Z,97928.28
2022-08-20T18:29:03.337Z,97931.56
2022-08-20T18:31:29.682Z,97934.88
2022-08-20T18:33:55.988Z,97941.34
2022-08-20T18:36:22.303Z,97938.47
2022-08-20T18:38:48.773Z,97943.38
2022-08-20T18:41:15.224Z,97949.06
2022-08-20T18:43:41.557Z,97946.94
2022-08-20T18:46:08.197Z,97943.72
2022-08-20T18:48:34.476Z,97951.34
2022-08-20T18:51:00.811Z,97945.41
2022-08-20T18:53:30.441Z,97947.59
2022-08-20T18:55:59.833Z,97947.09
2022-08-20T18:58:26.178Z,97949.28
2022-08-20T19:00:52.591Z,97951.47
2022-08-20T19:03:18.865Z,97948.25
2022-08-20T19:05:45.257Z,97959.06
2022-08-20T19:08:11.558Z,97957.47
2022-08-20T19:10:37.893Z,97959.63
2022-08-20T19:13:04.240Z,97957.50
2022-08-20T19:15:30.470Z,97961.31
2022-08-20T19:17:56.807Z,97958.09
2022-08-20T19:20:23.111Z,97958.38
2022-08-20T19:22:49.364Z,97950.56
2022-08-20T19:25:15.696Z,97951.94
2022-08-20T19:27:42.096Z,97945.22
2022-08-20T19:30:08.542Z,97943.63
2022-08-20T19:32:34.841Z,97957.44
2022-08-20T19:35:01.143Z,97959.59
2022-08-20T19:37:39.915Z,97951.81
2022-08-20T19:40:13.959Z,97954.81
2022-08-20T19:42:40.286Z,97945.88
2022-08-20T19:45:06.611Z,97949.19
2022-08-20T19:47:32.977Z,97954.06
2022-08-20T19:49:59.202Z,97955.94
2022-08-20T19:52:27.534Z,97957.31
2022-08-20T19:54:53.917Z,97963.81
2022-08-20T19:57:20.186Z,97960.59
2022-08-20T19:59:46.548Z,97962.78
2022-08-20T20:02:20.306Z,97958.50
2022-08-20T20:04:55.494Z,97954.47
2022-08-20T20:07:24.287Z,97954.75
2022-08-20T20:09:50.658Z,97957.75
2022-08-20T20:12:22.818Z,97955.63
2022-08-20T20:14:49.415Z,97957.53
2022-08-20T20:17:21.003Z,97952.41
2022-08-20T20:19:49.308Z,97953.78
2022-08-20T20:22:19.138Z,97952.19
2022-08-20T20:24:46.196Z,97957.06
2022-08-20T20:27:14.811Z,97960.06
2022-08-20T20:29:46.781Z,97956.03
2022-08-20T20:32:13.145Z,97962.53
2022-08-20T20:34:55.739Z,97959.00
2022-08-20T20:37:42.625Z,97957.72
2022-08-20T20:40:12.985Z,97956.38
2022-08-20T20:42:48.843Z,97963.97
2022-08-20T20:45:15.177Z,97965.88
2022-08-20T20:47:41.554Z,97960.78
2022-08-20T20:50:09.049Z,97963.72
2022-08-20T20:52:35.339Z,97963.22
2022-08-20T20:55:01.721Z,97965.38
2022-08-20T20:57:38.007Z,97966.75
2022-08-20T21:00:05.380Z,97967.03
2022-08-20T21:02:33.077Z,97968.13
2022-08-20T21:04:59.635Z,97956.66
2022-08-20T21:07:25.963Z,97976.78
2022-08-20T21:09:52.401Z,97973.56
2022-08-20T21:12:18.735Z,97980.88
2022-08-20T21:14:45.144Z,97978.47
2022-08-20T21:17:11.414Z,97976.03
2022-08-20T21:19:44.932Z,97980.63
2022-08-20T21:22:12.159Z,97981.72
2022-08-20T21:24:38.769Z,97975.78
2022-08-20T21:27:05.029Z,97978.78
2022-08-20T21:29:32.648Z,97976.38
2022-08-20T21:31:59.366Z,97980.16
2022-08-20T21:34:25.664Z,97980.16
2022-08-20T21:36:55.103Z,97975.06
2022-08-20T21:39:24.662Z,97980.75
2022-08-20T21:41:50.947Z,97973.72
2022-08-20T21:44:17.299Z,97981.00
2022-08-20T21:46:47.697Z,97979.41
2022-08-20T21:49:14.222Z,97975.91
2022-08-20T21:51:40.558Z,97982.16
2022-08-20T21:54:06.899Z,97972.22
2022-08-20T21:56:33.291Z,97955.09
2022-08-20T21:58:59.521Z,97972.03
2022-08-20T22:01:25.830Z,97978.28
2022-08-20T22:03:52.135Z,97977.22
2022-08-20T22:06:18.415Z,97972.69
2022-08-20T22:08:44.721Z,97969.78
2022-08-20T22:11:10.983Z,97973.56
2022-08-20T22:13:37.593Z,97977.38
2022-08-20T22:16:04.058Z,97974.75
2022-08-20T22:18:30.739Z,97968.56
2022-08-20T22:20:57.018Z,97975.88
2022-08-20T22:23:23.521Z,97971.13
2022-08-20T22:25:49.823Z,97973.31
2022-08-20T22:28:18.007Z,97976.31
2022-08-20T22:30:44.292Z,97971.81
2022-08-20T22:33:10.589Z,97970.25
2022-08-20T22:35:36.842Z,97959.50
2022-08-20T22:38:03.238Z,97959.56
2022-08-20T22:40:29.555Z,97956.91
2022-08-20T22:42:56.037Z,97961.28
2022-08-20T22:45:22.448Z,97959.97
2022-08-20T22:47:48.907Z,97968.06
2022-08-20T22:50:15.555Z,97962.97
2022-08-20T22:52:42.190Z,97961.66
2022-08-20T22:55:09.642Z,97955.75
2022-08-20T22:57:36.412Z,97958.19
2022-08-20T23:00:03.145Z,97950.66
2022-08-20T23:02:29.485Z,97953.34
2022-08-20T23:04:55.954Z,97954.47
2022-08-20T23:07:22.258Z,97959.03
2022-08-20T23:09:48.619Z,97947.75
2022-08-20T23:12:15.081Z,97946.69
2022-08-20T23:14:41.354Z,97948.31
2022-08-20T23:17:12.630Z,97953.94
2022-08-20T23:19:39.456Z,97951.00
2022-08-20T23:22:05.742Z,97947.50
2022-08-20T23:24:32.103Z,97946.16
2022-08-20T23:26:58.414Z,97943.22
2022-08-20T23:29:25.816Z,97943.22
2022-08-20T23:31:52.518Z,97938.09
2022-08-20T23:34:18.797Z,97943.72
2022-08-20T23:36:47.430Z,97941.03
2022-08-20T23:39:13.738Z,97946.13
2022-08-20T23:41:47.632Z,97945.06
2022-08-20T23:44:24.993Z,97944.00
2022-08-20T23:46:53.011Z,97948.28
2022-08-20T23:49:21.232Z,97947.44
2022-08-20T23:51:47.555Z,97955.22
2022-08-20T23:54:13.935Z,97950.66
2022-08-20T23:56:40.195Z,97952.25
2022-08-20T23:59:06.466Z,97955.75
